Time;durP1;ratioP1;P1;durP2;ratioP2;P2;SDS_P1;SDS_P2;PMS_P1;PMS_P2;Temp;Humidity;BMP_temperature;BMP_pressure;BME280_temperature;BME280_humidity;BME280_pressure;Samples;Min_cycle;Max_cycle;Signal;HPM_P1;HPM_P2
2023/12/13 00:00:18;;;;;;;;;4.33;2.67;;;;;11.86;88.88;99627.22;5079793;27;46293;-55
2023/12/13 00:02:43;;;;;;;;;8.00;2.33;;;;;11.84;88.17;99621.25;5097618;27;45316;-55
2023/12/13 00:05:09;;;;;;;;;9.67;2.33;;;;;11.79;88.46;99625.44;5097971;27;45393;-54
2023/12/13 00:07:34;;;;;;;;;2.67;2.33;;;;;11.72;88.96;99617.34;5098077;27;45227;-52
2023/12/13 00:09:59;;;;;;;;;6.00;1.00;;;;;11.66;88.24;99618.88;5097927;27;45738;-53
2023/12/13 00:12:25;;;;;;;;;4.67;2.67;;;;;11.60;88.98;99614.28;5097945;27;45385;-57
2023/12/13 00:14:50;;;;;;;;;6.67;1.00;;;;;11.55;88.88;99621.19;5097861;27;45316;-53
2023/12/13 00:17:15;;;;;;;;;7.67;2.00;;;;;11.48;89.19;99613.91;5097699;27;45184;-50
2023/12/13 00:19:41;;;;;;;;;3.67;2.00;;;;;11.56;89.37;99610.34;5097618;27;45977;-51
2023/12/13 00:22:06;;;;;;;;;3.00;1.00;;;;;11.54;89.32;99604.34;5097846;27;45414;-55
2023/12/13 00:24:31;;;;;;;;;8.33;3.33;;;;;11.54;89.07;99606.19;5097514;27;45460;-53
2023/12/13 00:26:57;;;;;;;;;5.67;1.33;;;;;11.52;89.08;99603.72;5097965;27;45416;-52
2023/12/13 00:29:22;;;;;;;;;1.33;1.00;;;;;11.51;89.11;99602.06;5097427;27;45413;-55
2023/12/13 00:31:47;;;;;;;;;1.67;1.00;;;;;11.53;89.27;99605.34;5097574;27;45400;-56
2023/12/13 00:34:13;;;;;;;;;1.00;1.00;;;;;11.52;90.08;99594.91;5097482;27;45320;-54
2023/12/13 00:36:38;;;;;;;;;1.00;1.00;;;;;11.51;89.55;99593.25;5097694;27;45448;-57
2023/12/13 00:39:03;;;;;;;;;6.67;2.00;;;;;11.47;89.62;99604.25;5097570;27;45252;-46
2023/12/13 00:41:29;;;;;;;;;2.00;1.00;;;;;11.40;90.15;99597.16;5097357;27;45218;-47
2023/12/13 00:43:54;;;;;;;;;2.00;1.00;;;;;11.39;90.16;99600.84;5097698;27;45317;-54
2023/12/13 00:46:22;;;;;;;;;3.00;3.00;;;;;11.36;90.03;99594.03;5097307;27;45263;-51
2023/12/13 00:48:48;;;;;;;;;3.33;2.33;;;;;11.34;90.13;99587.25;5096979;27;46931;-53
2023/12/13 00:51:18;;;;;;;;;4.67;2.00;;;;;11.26;89.98;99582.00;5097187;27;45461;-49
2023/12/13 00:53:44;;;;;;;;;5.67;1.00;;;;;11.26;90.09;99582.00;5097078;27;45443;-52
2023/12/13 00:56:09;;;;;;;;;6.33;4.33;;;;;11.24;90.54;99579.50;5097334;27;45504;-51
2023/12/13 00:58:35;;;;;;;;;2.33;1.00;;;;;11.21;90.08;99579.88;5096965;27;45370;-48
2023/12/13 01:01:00;;;;;;;;;0.00;0.00;;;;;11.21;90.85;99574.53;5098419;27;45813;-55
2023/12/13 01:03:26;;;;;;;;;5.33;2.00;;;;;11.19;91.08;99581.88;5100768;27;45404;-51
2023/12/13 01:05:51;;;;;;;;;3.00;1.00;;;;;11.20;90.22;99573.69;5100973;27;45385;-56
2023/12/13 01:08:17;;;;;;;;;1.67;1.67;;;;;11.16;89.89;99574.22;5100559;27;45202;-55
2023/12/13 01:10:43;;;;;;;;;3.00;0.00;;;;;11.18;90.63;99581.03;5100528;27;45161;-53
2023/12/13 01:13:08;;;;;;;;;7.67;1.33;;;;;11.17;90.10;99575.91;5100541;27;45499;-46
2023/12/13 01:15:33;;;;;;;;;0.33;0.33;;;;;11.16;90.66;99574.22;5100886;27;45344;-50
2023/12/13 01:17:59;;;;;;;;;6.00;1.00;;;;;11.18;90.41;99578.38;5100284;27;46286;-54
2023/12/13 01:20:24;;;;;;;;;3.00;1.00;;;;;11.19;90.04;99576.53;5100461;27;45302;-52
2023/12/13 01:22:49;;;;;;;;;3.00;1.00;;;;;11.18;89.97;99567.72;5100537;27;45421;-53
2023/12/13 01:25:15;;;;;;;;;4.33;2.67;;;;;11.19;90.04;99576.53;5100707;27;45587;-56
2023/12/13 01:27:40;;;;;;;;;2.00;1.00;;;;;11.11;89.73;99561.47;5100415;27;46091;-56
2023/12/13 01:30:08;;;;;;;;;2.00;1.00;;;;;11.12;89.39;99563.09;5100253;27;45804;-51
2023/12/13 01:32:34;;;;;;;;;5.67;2.33;;;;;11.10;89.09;99569.63;5100315;27;45377;-50
2023/12/13 01:34:59;;;;;;;;;7.00;2.67;;;;;11.05;89.19;99562.19;5100231;27;45488;-51
2023/12/13 01:37:24;;;;;;;;;2.00;1.00;;;;;11.06;88.71;99569.16;5100024;27;46952;-56
2023/12/13 01:39:50;;;;;;;;;2.33;0.00;;;;;11.04;88.70;99559.69;5100244;27;45681;-54
2023/12/13 01:42:15;;;;;;;;;1.00;1.00;;;;;10.99;88.28;99547.75;5100373;27;45945;-51
2023/12/13 01:44:41;;;;;;;;;1.00;1.00;;;;;10.98;88.54;99558.56;5100158;27;45281;-53
2023/12/13 01:47:07;;;;;;;;;3.00;1.33;;;;;10.95;88.52;99561.59;5100031;27;45349;-52
2023/12/13 01:49:32;;;;;;;;;3.67;0.67;;;;;10.92;88.95;99548.66;5099904;27;45763;-54
2023/12/13 01:51:58;;;;;;;;;6.00;1.33;;;;;10.89;88.88;99557.00;5100202;27;45470;-49
2023/12/13 01:54:24;;;;;;;;;3.67;2.00;;;;;10.74;89.17;99546.28;5100132;27;45483;-53
2023/12/13 01:56:51;;;;;;;;;1.33;1.33;;;;;10.88;89.28;99571.31;5099845;27;46167;-52
2023/12/13 01:59:17;;;;;;;;;2.00;2.00;;;;;10.84;89.09;99564.69;5100030;27;45831;-54
2023/12/13 02:01:43;;;;;;;;;2.67;1.00;;;;;10.82;89.16;99564.00;5099410;27;45326;-53
2023/12/13 02:04:12;;;;;;;;;3.67;1.00;;;;;10.81;89.26;99573.84;5100091;27;45415;-50
2023/12/13 02:06:38;;;;;;;;;2.00;1.00;;;;;10.80;89.24;99571.34;5099501;27;45371;-53
2023/12/13 02:09:04;;;;;;;;;1.00;1.00;;;;;10.78;89.21;99576.00;5097324;27;45386;-50
2023/12/13 02:11:29;;;;;;;;;4.00;1.33;;;;;10.74;89.65;99571.06;5099492;27;45404;-56
2023/12/13 02:13:56;;;;;;;;;4.00;1.00;;;;;10.64;89.68;99557.16;5098235;27;45349;-55
2023/12/13 02:16:21;;;;;;;;;8.00;2.00;;;;;10.72;89.64;99575.72;5099527;27;47466;-52
2023/12/13 02:18:47;;;;;;;;;1.67;1.67;;;;;10.73;90.06;99571.22;5099260;27;45702;-48
2023/12/13 02:21:12;;;;;;;;;5.00;2.33;;;;;10.73;89.62;99569.38;5099620;27;45304;-53
2023/12/13 02:23:38;;;;;;;;;3.00;1.00;;;;;10.74;90.07;99576.38;5099396;27;45475;-51
2023/12/13 02:26:05;;;;;;;;;2.00;1.00;;;;;10.78;89.89;99576.84;5099376;27;46300;-51
2023/12/13 02:28:31;;;;;;;;;1.00;1.00;;;;;10.76;89.91;99568.22;5099207;27;45316;-54
2023/12/13 02:30:57;;;;;;;;;4.00;1.00;;;;;10.74;89.29;99565.75;5099492;27;45410;-48
2023/12/13 02:33:24;;;;;;;;;2.67;1.00;;;;;10.63;89.73;99552.84;5099720;27;45394;-52
2023/12/13 02:35:50;;;;;;;;;3.00;1.00;;;;;10.66;89.54;99563.13;5098930;27;45360;-53
2023/12/13 02:38:15;;;;;;;;;2.67;1.00;;;;;10.64;89.61;99553.66;5099107;27;45409;-51
2023/12/13 02:40:41;;;;;;;;;1.00;1.00;;;;;10.62;89.96;99567.16;5099249;27;45468;-53
2023/12/13 02:43:06;;;;;;;;;4.00;2.00;;;;;10.63;89.94;99573.28;5099398;27;45421;-55
2023/12/13 02:45:31;;;;;;;;;2.33;2.00;;;;;10.66;89.57;99568.47;5099027;27;47015;-53
2023/12/13 02:47:59;;;;;;;;;3.00;0.33;;;;;10.70;89.16;99567.09;5098964;27;45479;-51
2023/12/13 02:50:25;;;;;;;;;1.00;1.00;;;;;10.69;89.71;99556.63;5099322;27;45221;-54
2023/12/13 02:52:50;;;;;;;;;1.67;1.33;;;;;10.66;89.44;99555.16;5099733;27;45337;-54
2023/12/13 02:55:15;;;;;;;;;4.33;2.00;;;;;10.65;89.43;99556.13;5099344;27;46151;-55
2023/12/13 02:57:41;;;;;;;;;2.00;1.67;;;;;10.62;89.28;99551.19;5099400;27;45388;-51
2023/12/13 03:00:07;;;;;;;;;0.67;0.67;;;;;10.59;89.39;99548.06;5099259;27;45310;-53
2023/12/13 03:02:32;;;;;;;;;2.67;0.67;;;;;10.54;89.14;99535.28;5099365;27;45230;-53
2023/12/13 03:04:59;;;;;;;;;3.67;1.33;;;;;10.51;89.47;99532.16;5098978;27;47108;-54
2023/12/13 03:07:24;;;;;;;;;2.33;0.00;;;;;10.48;89.35;99539.47;5099172;27;45393;-51
2023/12/13 03:09:50;;;;;;;;;1.00;1.00;;;;;10.47;89.46;99537.81;5098938;27;45476;-53
2023/12/13 03:12:15;;;;;;;;;3.67;1.67;;;;;10.46;89.41;99535.34;5099190;27;45394;-48
2023/12/13 03:14:41;;;;;;;;;1.00;1.00;;;;;10.42;89.55;99524.22;5098700;27;45365;-52
2023/12/13 03:17:06;;;;;;;;;3.00;1.00;;;;;10.41;89.71;99529.72;5098620;27;45494;-52
2023/12/13 03:19:32;;;;;;;;;3.33;1.00;;;;;10.30;89.92;99511.50;5098735;27;45350;-53
2023/12/13 03:21:57;;;;;;;;;4.00;2.00;;;;;10.34;89.64;99526.09;5098939;27;45444;-53
2023/12/13 03:24:22;;;;;;;;;3.33;2.00;;;;;10.36;89.52;99534.72;5098247;27;46321;-52
2023/12/13 03:26:48;;;;;;;;;4.67;1.00;;;;;10.34;89.62;99532.25;5098261;27;45324;-51
2023/12/13 03:29:13;;;;;;;;;5.33;1.33;;;;;10.32;89.67;99528.09;5098310;27;46305;-53
2023/12/13 03:31:38;;;;;;;;;6.33;1.00;;;;;10.33;89.97;99529.78;5098731;27;45210;-47
2023/12/13 03:34:04;;;;;;;;;1.00;1.00;;;;;10.33;89.95;99535.91;5098282;27;46116;-52
2023/12/13 03:36:29;;;;;;;;;3.00;1.00;;;;;10.32;89.91;99520.13;5098045;27;45847;-53
2023/12/13 03:38:54;;;;;;;;;1.00;1.00;;;;;10.32;89.94;99512.97;5098210;27;45669;-51
2023/12/13 03:41:20;;;;;;;;;11.00;3.00;;;;;10.27;89.93;99502.03;5098533;27;45472;-51
2023/12/13 03:43:45;;;;;;;;;1.67;1.67;;;;;10.42;89.52;99510.09;5097909;27;48726;-49
2023/12/13 03:46:11;;;;;;;;;5.33;1.00;;;;;10.36;89.27;99493.00;5098272;27;45383;-55
2023/12/13 03:48:36;;;;;;;;;1.33;1.00;;;;;10.45;88.95;99502.59;5098068;27;45332;-51
2023/12/13 03:51:02;;;;;;;;;3.00;1.33;;;;;10.59;88.74;99514.31;5098319;27;45414;-51
2023/12/13 03:53:28;;;;;;;;;5.33;1.33;;;;;10.59;88.96;99509.00;5097310;27;45783;-53
2023/12/13 03:55:53;;;;;;;;;1.67;1.67;;;;;10.61;88.49;99512.28;5098153;27;45645;-51
2023/12/13 03:58:19;;;;;;;;;2.00;0.33;;;;;10.65;88.44;99510.94;5097989;27;45415;-51
2023/12/13 04:00:44;;;;;;;;;1.00;1.00;;;;;10.67;88.64;99522.22;5097178;27;45527;-51
2023/12/13 04:03:09;;;;;;;;;1.00;1.00;;;;;10.65;88.47;99508.25;5097836;27;45416;-51
2023/12/13 04:05:35;;;;;;;;;4.00;2.00;;;;;10.66;88.35;99501.97;5097442;27;48104;-53
2023/12/13 04:08:00;;;;;;;;;2.00;2.00;;;;;10.61;88.57;99500.81;5098132;27;45467;-49
2023/12/13 04:10:26;;;;;;;;;3.67;2.00;;;;;10.58;89.00;99503.84;5097884;27;45303;-52
2023/12/13 04:12:52;;;;;;;;;5.00;1.00;;;;;10.55;89.23;99501.53;5097903;27;45888;-46
2023/12/13 04:15:17;;;;;;;;;2.00;1.00;;;;;10.52;89.15;99502.72;5097712;27;45695;-49
2023/12/13 04:17:42;;;;;;;;;5.33;1.00;;;;;10.43;89.07;99493.16;5097387;27;45858;-47
2023/12/13 04:20:08;;;;;;;;;6.00;2.00;;;;;10.45;89.31;99501.78;5097781;27;45419;-50
2023/12/13 04:22:34;;;;;;;;;4.33;1.00;;;;;10.43;89.19;99506.44;5097275;27;46366;-48
2023/12/13 04:24:59;;;;;;;;;2.67;2.00;;;;;10.42;89.33;99502.13;5097389;27;49700;-48
2023/12/13 04:27:24;;;;;;;;;5.00;3.00;;;;;10.36;89.46;99495.66;5097465;27;45211;-52
2023/12/13 04:29:50;;;;;;;;;2.33;2.00;;;;;10.36;89.61;99508.97;5097819;27;45250;-46
2023/12/13 04:32:15;;;;;;;;;1.00;1.00;;;;;10.35;89.69;99502.00;5097421;27;46909;-50
2023/12/13 04:34:40;;;;;;;;;10.67;3.67;;;;;10.35;89.90;99507.31;5078884;27;45231;-52
2023/12/13 04:37:06;;;;;;;;;5.33;1.33;;;;;10.32;89.98;99510.31;5096689;27;47230;-49
2023/12/13 04:39:31;;;;;;;;;5.33;3.00;;;;;10.34;90.11;99512.81;5097654;27;45690;-53
2023/12/13 04:41:56;;;;;;;;;2.67;1.00;;;;;10.35;89.95;99509.13;5097281;27;46114;-52
2023/12/13 04:44:27;;;;;;;;;2.67;0.67;;;;;10.35;90.00;99502.00;5097212;27;45765;-51
2023/12/13 04:46:55;;;;;;;;;2.00;2.00;;;;;10.37;90.15;99505.31;5097368;27;45338;-50
2023/12/13 04:49:21;;;;;;;;;3.67;3.00;;;;;10.40;90.11;99499.63;5097355;27;45383;-54
2023/12/13 04:51:46;;;;;;;;;1.00;1.00;;;;;10.44;89.77;99500.09;5096707;27;47454;-51
2023/12/13 04:54:11;;;;;;;;;2.33;1.67;;;;;10.38;89.67;99491.00;5097112;27;45446;-52
2023/12/13 04:56:37;;;;;;;;;2.00;1.00;;;;;10.36;89.81;99497.50;5097029;27;46824;-55
2023/12/13 04:59:02;;;;;;;;;5.67;2.67;;;;;10.32;89.82;99498.84;5097358;27;45309;-56
2023/12/13 05:01:27;;;;;;;;;3.00;1.00;;;;;10.24;90.01;99489.09;5097006;27;46180;-53
2023/12/13 05:03:53;;;;;;;;;3.67;1.00;;;;;10.25;90.06;99490.78;5096936;27;46967;-54
2023/12/13 05:06:19;;;;;;;;;4.67;0.67;;;;;10.24;90.20;99494.41;5096941;27;45369;-52
2023/12/13 05:08:46;;;;;;;;;2.67;1.00;;;;;10.21;90.20;99490.25;5097083;27;45322;-49
2023/12/13 05:11:11;;;;;;;;;6.00;2.00;;;;;10.17;90.21;99488.94;5096723;27;45468;-55
2023/12/13 05:13:36;;;;;;;;;1.00;1.00;;;;;10.13;89.89;99482.31;5096822;27;45445;-53
2023/12/13 05:16:02;;;;;;;;;2.67;1.33;;;;;10.12;89.86;99486.00;5097028;27;45460;-54
2023/12/13 05:18:29;;;;;;;;;0.67;0.33;;;;;10.04;89.73;99483.38;5096683;27;45439;-54
2023/12/13 05:20:54;;;;;;;;;5.33;2.00;;;;;10.04;90.02;99475.41;5096444;27;46799;-57
2023/12/13 05:23:19;;;;;;;;;1.00;1.00;;;;;10.08;90.29;99473.22;5096745;27;45408;-53
2023/12/13 05:25:45;;;;;;;;;2.00;2.00;;;;;10.11;90.26;99478.19;5096986;27;45425;-56
2023/12/13 05:28:10;;;;;;;;;2.33;0.00;;;;;10.09;89.91;99478.38;5096037;27;45493;-51
2023/12/13 05:30:36;;;;;;;;;5.67;0.00;;;;;10.06;90.34;99470.72;5096295;27;46678;-56
2023/12/13 05:33:01;;;;;;;;;0.67;0.67;;;;;10.10;89.83;99471.22;5096920;27;45391;-51
2023/12/13 05:35:26;;;;;;;;;4.33;1.33;;;;;10.08;90.12;99475.88;5097205;27;45386;-54
2023/12/13 05:37:52;;;;;;;;;2.00;0.67;;;;;10.10;90.14;99473.88;5097169;27;45338;-54
2023/12/13 05:40:17;;;;;;;;;10.67;1.67;;;;;10.09;90.22;99474.88;5096329;27;46328;-51
2023/12/13 05:42:42;;;;;;;;;3.00;2.33;;;;;10.09;89.91;99473.03;5096482;27;45408;-53
2023/12/13 05:45:08;;;;;;;;;3.67;1.00;;;;;10.09;90.05;99459.75;5096727;27;45230;-52
2023/12/13 05:47:33;;;;;;;;;1.00;1.00;;;;;10.06;89.97;99456.63;5098923;27;45402;-51
2023/12/13 05:49:59;;;;;;;;;5.00;2.33;;;;;10.07;90.12;99455.63;5099893;27;50382;-51
2023/12/13 05:52:24;;;;;;;;;1.00;1.00;;;;;10.06;89.94;99460.09;5099804;27;45504;-50
2023/12/13 05:54:49;;;;;;;;;3.00;2.00;;;;;10.06;90.17;99457.44;5100019;27;45397;-51
2023/12/13 05:57:15;;;;;;;;;6.00;1.00;;;;;10.02;90.12;99444.69;5081228;27;45501;-51
2023/12/13 05:59:40;;;;;;;;;2.33;2.00;;;;;10.10;90.09;99466.72;5099862;27;46785;-52
2023/12/13 06:02:06;;;;;;;;;5.00;1.67;;;;;10.08;90.55;99455.47;5099826;27;45459;-51
2023/12/13 06:04:31;;;;;;;;;7.67;2.00;;;;;10.07;90.16;99451.16;5099876;27;45385;-49
2023/12/13 06:06:57;;;;;;;;;2.33;2.00;;;;;10.04;90.04;99448.00;5099753;27;45470;-51
2023/12/13 06:09:22;;;;;;;;;5.67;1.00;;;;;10.02;90.10;99444.69;5099349;27;46505;-51
2023/12/13 06:11:48;;;;;;;;;0.00;0.00;;;;;10.06;90.09;99457.44;5099714;27;45443;-51
2023/12/13 06:14:13;;;;;;;;;1.00;1.00;;;;;10.03;90.07;99457.81;5099794;27;45388;-53
2023/12/13 06:16:38;;;;;;;;;3.00;1.00;;;;;9.99;90.35;99461.81;5099861;27;45417;-49
2023/12/13 06:19:04;;;;;;;;;1.00;1.00;;;;;10.03;90.55;99456.97;5099426;27;46056;-52
2023/12/13 06:21:29;;;;;;;;;4.33;2.00;;;;;10.03;89.76;99463.13;5099528;27;45563;-54
2023/12/13 06:23:55;;;;;;;;;6.67;3.00;;;;;10.03;90.13;99460.47;5099420;27;45320;-53
2023/12/13 06:26:20;;;;;;;;;7.00;3.00;;;;;10.04;90.16;99464.78;5099745;27;45222;-51
2023/12/13 06:28:45;;;;;;;;;5.67;2.00;;;;;10.03;90.14;99470.25;5098941;27;46259;-53
2023/12/13 06:31:11;;;;;;;;;7.33;2.00;;;;;10.00;89.94;99466.94;5099322;27;45410;-51
2023/12/13 06:33:36;;;;;;;;;6.00;2.00;;;;;10.00;90.02;99466.13;5099438;27;45392;-52
2023/12/13 06:36:02;;;;;;;;;3.00;1.00;;;;;10.02;90.04;99473.91;5099605;27;45428;-50
2023/12/13 06:38:27;;;;;;;;;0.67;0.00;;;;;10.01;89.97;99473.09;5098954;27;45543;-49
2023/12/13 06:40:52;;;;;;;;;4.67;2.00;;;;;9.99;89.85;99469.78;5099075;27;45313;-51
2023/12/13 06:43:18;;;;;;;;;2.33;0.33;;;;;9.97;89.98;99471.78;5099473;27;45339;-51
2023/12/13 06:45:43;;;;;;;;;3.33;2.00;;;;;9.93;89.95;99468.63;5099268;27;45440;-50
2023/12/13 06:48:09;;;;;;;;;1.33;1.00;;;;;9.95;90.04;99476.47;5098767;27;46361;-49
2023/12/13 06:50:34;;;;;;;;;2.00;2.00;;;;;9.93;90.02;99473.13;5098930;27;45403;-47
2023/12/13 06:53:00;;;;;;;;;3.00;1.00;;;;;9.92;90.41;99480.28;5098982;27;45455;-53
2023/12/13 06:55:26;;;;;;;;;11.00;2.33;;;;;9.88;90.57;99484.28;5099303;27;45514;-50
2023/12/13 06:57:51;;;;;;;;;5.00;3.00;;;;;9.92;90.08;99484.75;5098486;27;45857;-49
2023/12/13 07:00:19;;;;;;;;;2.33;2.00;;;;;9.91;90.13;99475.97;5098570;27;45401;-49
2023/12/13 07:02:44;;;;;;;;;2.33;1.00;;;;;9.92;89.95;99479.44;5098999;27;45413;-48
2023/12/13 07:05:10;;;;;;;;;3.67;1.67;;;;;9.91;89.93;99478.63;5099048;27;45291;-48
2023/12/13 07:07:35;;;;;;;;;3.67;2.00;;;;;9.85;89.65;99470.50;5098410;27;46207;-49
2023/12/13 07:10:01;;;;;;;;;5.33;2.33;;;;;9.88;89.58;99475.47;5098613;27;45435;-47
2023/12/13 07:12:28;;;;;;;;;2.00;0.33;;;;;9.87;89.79;99476.50;5098101;27;45594;-47
2023/12/13 07:14:56;;;;;;;;;4.00;1.67;;;;;9.87;89.50;99479.16;5098905;27;45416;-51
2023/12/13 07:17:21;;;;;;;;;1.00;1.00;;;;;9.86;89.76;99470.34;5098220;27;46365;-49
2023/12/13 07:19:47;;;;;;;;;6.33;1.00;;;;;9.87;89.55;99476.50;5098395;27;45426;-47
2023/12/13 07:22:12;;;;;;;;;3.00;1.00;;;;;9.87;89.40;99474.66;5098574;27;45372;-49
2023/12/13 07:24:38;;;;;;;;;8.67;3.00;;;;;9.88;89.29;99480.78;5097409;27;45500;-51
2023/12/13 07:27:03;;;;;;;;;3.67;1.33;;;;;9.87;89.31;99479.16;5098191;27;51423;-49
2023/12/13 07:29:29;;;;;;;;;8.00;2.00;;;;;9.87;89.42;99487.13;5096834;27;45334;-53
2023/12/13 07:31:55;;;;;;;;;7.67;2.67;;;;;9.88;89.27;99488.75;5098528;27;45227;-48
2023/12/13 07:34:20;;;;;;;;;7.33;4.00;;;;;9.86;89.45;99488.09;5098440;27;45417;-52
2023/12/13 07:36:48;;;;;;;;;4.67;2.00;;;;;9.85;89.33;99487.28;5097935;27;46304;-52
2023/12/13 07:39:15;;;;;;;;;5.67;2.33;;;;;9.87;89.53;99493.25;5098305;27;45392;-51
2023/12/13 07:41:41;;;;;;;;;5.00;2.33;;;;;9.75;89.21;99470.72;5098281;27;45532;-50
2023/12/13 07:44:06;;;;;;;;;5.33;3.00;;;;;9.88;89.13;99508.19;5098206;27;45367;-55
2023/12/13 07:46:32;;;;;;;;;7.00;3.67;;;;;9.90;89.07;99492.91;5097749;27;46297;-55
2023/12/13 07:49:03;;;;;;;;;5.33;2.00;;;;;9.91;88.68;99493.75;5097782;27;45409;-54
2023/12/13 07:51:31;;;;;;;;;8.33;7.00;;;;;9.95;88.46;99501.19;5079520;27;45378;-52
2023/12/13 07:53:59;;;;;;;;;8.00;3.00;;;;;9.94;88.38;99496.88;5097897;27;45394;-52
2023/12/13 07:56:25;;;;;;;;;1.67;0.33;;;;;9.97;87.80;99501.00;5097407;27;46189;-54
2023/12/13 07:58:50;;;;;;;;;2.00;2.00;;;;;10.03;87.89;99499.47;5097742;27;45362;-53
2023/12/13 08:01:16;;;;;;;;;7.00;3.00;;;;;10.07;87.42;99508.75;5097593;27;45249;-52
2023/12/13 08:03:43;;;;;;;;;2.00;2.00;;;;;10.12;86.78;99512.56;5097859;27;45466;-51
2023/12/13 08:06:12;;;;;;;;;2.33;2.33;;;;;10.20;86.99;99512.53;5097687;27;47275;-53
2023/12/13 08:08:39;;;;;;;;;1.00;1.00;;;;;10.30;86.06;99516.81;5097120;27;45795;-54
2023/12/13 08:11:04;;;;;;;;;5.67;1.33;;;;;10.36;85.80;99518.75;5096284;27;45407;-52
2023/12/13 08:13:30;;;;;;;;;4.00;1.00;;;;;10.44;85.48;99524.03;5097549;27;45379;-50
2023/12/13 08:15:55;;;;;;;;;3.67;2.00;;;;;10.49;85.39;99522.53;5097329;27;45428;-48
2023/12/13 08:18:20;;;;;;;;;1.00;1.00;;;;;10.52;85.33;99526.66;5097218;27;45336;-47
2023/12/13 08:20:45;;;;;;;;;3.00;1.00;;;;;10.53;84.60;99528.28;5097239;27;45430;-49
2023/12/13 08:23:11;;;;;;;;;2.00;2.00;;;;;10.57;84.45;99542.91;5097661;27;45198;-49
2023/12/13 08:25:38;;;;;;;;;1.00;1.00;;;;;10.60;84.05;99537.22;5097315;27;45759;-54
2023/12/13 08:28:03;;;;;;;;;3.33;1.67;;;;;10.63;84.40;99539.53;5097161;27;45389;-44
2023/12/13 08:30:29;;;;;;;;;1.00;1.00;;;;;10.65;83.99;99539.34;5097069;27;45567;-49
2023/12/13 08:32:54;;;;;;;;;2.00;0.00;;;;;10.63;83.99;99539.53;5097648;27;45317;-49
2023/12/13 08:35:19;;;;;;;;;1.00;0.00;;;;;10.64;84.31;99543.84;5097273;27;45379;-50
2023/12/13 08:37:44;;;;;;;;;1.67;1.67;;;;;10.63;84.50;99539.53;5097196;27;47233;-49
2023/12/13 08:40:10;;;;;;;;;1.00;1.00;;;;;10.67;84.05;99542.69;5097458;27;45331;-48
2023/12/13 08:42:37;;;;;;;;;2.00;1.00;;;;;10.69;83.69;99545.97;5097534;27;45349;-51
2023/12/13 08:45:03;;;;;;;;;4.33;2.33;;;;;10.72;83.87;99540.31;5097317;27;47116;-48
2023/12/13 08:47:28;;;;;;;;;2.00;0.00;;;;;10.72;83.26;99541.13;5094653;27;45414;-50
2023/12/13 08:49:54;;;;;;;;;5.00;1.00;;;;;10.72;82.45;99545.63;5093606;27;45442;-50
2023/12/13 08:52:20;;;;;;;;;3.00;2.00;;;;;10.72;82.89;99546.47;5096179;27;45506;-49
2023/12/13 08:54:46;;;;;;;;;3.00;2.00;;;;;10.67;82.74;99529.38;5095606;27;46189;-50
2023/12/13 08:57:11;;;;;;;;;7.33;1.00;;;;;10.82;82.38;99550.72;5095794;27;45383;-46
2023/12/13 08:59:37;;;;;;;;;2.00;1.00;;;;;10.90;81.91;99546.16;5096776;27;45421;-51
2023/12/13 09:02:02;;;;;;;;;1.00;1.00;;;;;10.92;81.31;99535.34;5096558;27;45577;-49
2023/12/13 09:04:27;;;;;;;;;4.00;0.00;;;;;11.07;80.78;99557.50;5096273;27;46169;-48
2023/12/13 09:06:53;;;;;;;;;3.33;2.00;;;;;11.12;81.02;99557.78;5078086;27;45280;-53
2023/12/13 09:09:18;;;;;;;;;2.00;1.00;;;;;11.11;80.74;99555.31;5096105;27;45368;-53
2023/12/13 09:11:46;;;;;;;;;1.67;1.00;;;;;11.06;80.25;99549.72;5096679;27;45342;-54
2023/12/13 09:14:11;;;;;;;;;2.67;1.00;;;;;11.10;80.78;99567.78;5095198;27;46131;-52
2023/12/13 09:16:37;;;;;;;;;2.67;1.00;;;;;11.10;80.56;99565.13;5095534;27;45578;-53
2023/12/13 09:19:02;;;;;;;;;1.33;1.00;;;;;11.08;80.79;99567.16;5096411;27;45374;-52
2023/12/13 09:21:28;;;;;;;;;0.00;0.00;;;;;11.10;81.10;99566.97;5097034;27;45600;-56
2023/12/13 09:23:53;;;;;;;;;1.00;1.00;;;;;11.12;80.46;99567.59;5099716;27;46015;-52
2023/12/13 09:26:18;;;;;;;;;4.00;1.00;;;;;11.17;79.72;99568.75;5100234;27;45247;-50
2023/12/13 09:28:44;;;;;;;;;2.67;2.00;;;;;11.27;79.88;99570.31;5100229;27;45444;-54
2023/12/13 09:31:11;;;;;;;;;1.67;1.00;;;;;11.30;79.52;99568.13;5100783;27;45451;-52
2023/12/13 09:33:37;;;;;;;;;1.67;1.67;;;;;11.32;79.58;99560.78;5100052;27;47191;-51
2023/12/13 09:36:03;;;;;;;;;1.33;1.00;;;;;11.38;79.57;99569.91;5100200;27;45413;-50
2023/12/13 09:38:29;;;;;;;;;3.00;1.00;;;;;11.44;79.59;99570.00;5099299;27;45390;-52
2023/12/13 09:40:54;;;;;;;;;1.33;1.00;;;;;11.47;78.70;99561.66;5100289;27;45350;-47
2023/12/13 09:43:23;;;;;;;;;0.67;0.33;;;;;11.51;79.06;99577.28;5100295;27;45474;-45
2023/12/13 09:45:51;;;;;;;;;1.00;0.00;;;;;11.53;78.35;99575.25;5100158;27;45383;-48
2023/12/13 09:48:21;;;;;;;;;3.67;2.00;;;;;11.45;79.57;99570.81;5100216;27;45187;-49
2023/12/13 09:50:51;;;;;;;;;2.67;2.67;;;;;11.45;78.56;99584.13;5099546;27;45435;-50
2023/12/13 09:53:20;;;;;;;;;5.00;1.00;;;;;11.45;79.61;99592.13;5099682;27;45384;-48
2023/12/13 09:55:46;;;;;;;;;1.00;1.00;;;;;11.48;79.47;99591.75;5099593;27;45417;-51
2023/12/13 09:58:11;;;;;;;;;3.00;1.00;;;;;11.49;78.69;99591.56;5099953;27;45374;-47
2023/12/13 10:00:37;;;;;;;;;1.33;1.33;;;;;11.63;79.03;99591.78;5099944;27;45376;-49
2023/12/13 10:03:02;;;;;;;;;3.00;1.00;;;;;11.68;78.67;99587.56;5099873;27;45416;-57
2023/12/13 10:05:31;;;;;;;;;2.67;1.00;;;;;11.82;78.13;99596.59;5099820;27;45380;-51
2023/12/13 10:08:00;;;;;;;;;2.67;1.00;;;;;12.30;77.89;99593.56;5099841;27;45286;-51
2023/12/13 10:10:29;;;;;;;;;3.00;1.67;;;;;13.17;74.48;99585.47;5099880;27;45498;-51
2023/12/13 10:12:54;;;;;;;;;2.00;1.00;;;;;13.29;73.03;99600.00;5081181;27;46223;-49
2023/12/13 10:15:20;;;;;;;;;2.00;0.33;;;;;13.21;73.42;99594.75;5098135;27;45448;-46
2023/12/13 10:17:45;;;;;;;;;3.00;1.00;;;;;12.91;73.03;99591.41;5099749;27;45405;-52
2023/12/13 10:20:10;;;;;;;;;7.00;2.33;;;;;12.87;73.59;99596.28;5099292;27;45364;-50
2023/12/13 10:22:38;;;;;;;;;7.00;1.00;;;;;12.90;73.14;99605.78;5099330;27;46583;-51
2023/12/13 10:25:04;;;;;;;;;1.33;1.33;;;;;12.97;73.35;99603.97;5099045;27;45330;-54
2023/12/13 10:27:31;;;;;;;;;3.00;1.00;;;;;12.93;73.15;99608.88;5099196;27;45523;-55
2023/12/13 10:29:56;;;;;;;;;3.00;1.00;;;;;12.84;73.57;99611.84;5099281;27;45639;-52
2023/12/13 10:32:22;;;;;;;;;2.67;1.67;;;;;12.70;74.20;99622.38;5098078;27;55746;-53
2023/12/13 10:34:48;;;;;;;;;8.33;2.00;;;;;12.62;74.18;99613.66;5098100;27;45452;-50
2023/12/13 10:37:13;;;;;;;;;3.33;2.00;;;;;12.54;74.21;99619.09;5098970;27;45400;-55
2023/12/13 10:39:44;;;;;;;;;0.00;0.00;;;;;12.47;74.44;99622.53;5099436;27;45487;-55
2023/12/13 10:42:10;;;;;;;;;3.00;1.00;;;;;12.40;74.98;99616.28;5098950;27;46358;-55
2023/12/13 10:44:36;;;;;;;;;1.33;1.00;;;;;12.35;74.94;99625.84;5098685;27;45390;-53
2023/12/13 10:47:08;;;;;;;;;1.67;1.67;;;;;12.32;75.04;99628.88;5099087;27;45868;-55
2023/12/13 10:49:35;;;;;;;;;3.00;1.00;;;;;12.27;75.48;99636.63;5098998;27;45477;-48
2023/12/13 10:52:02;;;;;;;;;0.67;0.67;;;;;12.19;75.07;99629.53;5098841;27;45455;-55
2023/12/13 10:54:28;;;;;;;;;1.00;1.00;;;;;12.16;75.08;99635.22;5098427;27;45385;-55
2023/12/13 10:56:55;;;;;;;;;4.33;1.00;;;;;12.12;75.82;99633.94;5099105;27;45411;-59
2023/12/13 10:59:21;;;;;;;;;3.00;2.00;;;;;12.02;75.64;99634.22;5099193;27;45366;-56
2023/12/13 11:01:48;;;;;;;;;6.00;3.00;;;;;11.96;76.27;99638.44;5098976;27;46448;-59
2023/12/13 11:04:16;;;;;;;;;3.00;3.00;;;;;11.90;75.59;99631.19;5098526;27;45374;-53
2023/12/13 11:06:45;;;;;;;;;3.00;1.33;;;;;11.90;76.04;99639.16;5098774;27;45465;-55
2023/12/13 11:09:17;;;;;;;;;2.00;2.00;;;;;11.84;76.37;99639.06;5098267;27;45611;-57
2023/12/13 11:11:43;;;;;;;;;2.00;2.00;;;;;11.81;76.50;99640.22;5098317;27;46202;-55
2023/12/13 11:14:10;;;;;;;;;5.33;3.00;;;;;11.81;76.31;99640.22;5098282;27;45339;-51
2023/12/13 11:16:42;;;;;;;;;3.00;2.00;;;;;11.83;76.78;99642.75;5098588;27;45290;-53
2023/12/13 11:19:12;;;;;;;;;2.33;2.00;;;;;11.86;76.13;99645.06;5098696;27;45396;-51
2023/12/13 11:21:38;;;;;;;;;5.67;1.67;;;;;11.91;76.22;99643.47;5097855;27;47467;-57
2023/12/13 11:24:15;;;;;;;;;1.00;1.00;;;;;11.80;76.41;99632.41;5097892;27;45332;-49
2023/12/13 11:26:42;;;;;;;;;2.33;2.00;;;;;11.90;76.13;99638.34;5098248;27;45566;-55